Time;durP1;ratioP1;P1;durP2;ratioP2;P2;SDS_P1;SDS_P2;PMS_P1;PMS_P2;Temp;Humidity;BMP_temperature;BMP_pressure;BME280_temperature;BME280_humidity;BME280_pressure;Samples;Min_cycle;Max_cycle;Signal;HPM_P1;HPM_P2
2022/10/12 00:01:33;;;;;;;3.60;1.70;;;10.40;99.90;;;;;;4997160;28;20254;-69
2022/10/12 00:03:58;;;;;;;2.53;1.50;;;10.40;99.90;;;;;;5009618;28;20221;-70
2022/10/12 00:06:24;;;;;;;2.23;1.70;;;10.40;99.90;;;;;;5016337;28;20227;-70
2022/10/12 00:08:52;;;;;;;1.93;1.43;;;10.40;99.90;;;;;;5002402;28;20276;-70
2022/10/12 00:11:22;;;;;;;4.70;1.43;;;10.40;99.90;;;;;;5030451;28;20299;-70
2022/10/12 00:13:48;;;;;;;2.10;1.67;;;10.40;99.90;;;;;;4995607;28;20494;-70
2022/10/12 00:16:15;;;;;;;2.97;1.87;;;10.30;99.90;;;;;;5011183;28;20482;-68
2022/10/12 00:18:41;;;;;;;3.73;1.13;;;10.30;99.90;;;;;;5034082;28;20217;-70
2022/10/12 00:21:13;;;;;;;2.60;1.60;;;10.30;99.90;;;;;;5014840;28;20481;-69
2022/10/12 00:23:39;;;;;;;1.60;1.50;;;10.30;99.90;;;;;;5010130;28;20323;-70
2022/10/12 00:26:12;;;;;;;1.37;1.27;;;10.30;99.90;;;;;;5017311;28;20451;-68
2022/10/12 00:28:38;;;;;;;2.57;2.10;;;10.20;99.90;;;;;;5021699;28;20471;-70
2022/10/12 00:31:16;;;;;;;4.03;1.50;;;10.10;99.90;;;;;;5001656;28;20463;-70
2022/10/12 00:33:42;;;;;;;10.37;2.07;;;10.10;99.90;;;;;;4990528;28;20295;-70
2022/10/12 00:36:19;;;;;;;2.00;1.23;;;10.10;99.90;;;;;;5012940;28;20475;-70
2022/10/12 00:38:45;;;;;;;1.50;1.20;;;10.10;99.90;;;;;;4996670;28;20452;-70
2022/10/12 00:41:12;;;;;;;1.17;1.07;;;10.00;99.90;;;;;;5001135;28;20532;-71
2022/10/12 00:43:40;;;;;;;3.10;1.90;;;10.00;99.90;;;;;;5027569;28;21028;-70
2022/10/12 00:46:19;;;;;;;2.10;1.77;;;10.00;99.90;;;;;;5020315;28;20458;-69
2022/10/12 00:48:50;;;;;;;4.40;1.30;;;10.00;99.90;;;;;;5020062;28;20508;-70
2022/10/12 00:51:18;;;;;;;1.40;1.30;;;10.00;99.90;;;;;;5017940;28;20854;-71
2022/10/12 00:53:51;;;;;;;3.40;1.97;;;10.00;99.90;;;;;;5021582;28;20458;-71
2022/10/12 00:56:24;;;;;;;1.30;1.20;;;9.90;99.90;;;;;;5014232;28;20456;-70
2022/10/12 00:58:50;;;;;;;2.73;1.70;;;9.90;99.90;;;;;;5015989;28;20477;-70
2022/10/12 01:01:17;;;;;;;3.30;1.60;;;9.90;99.90;;;;;;5017039;28;20974;-70
2022/10/12 01:03:43;;;;;;;3.03;1.23;;;9.90;99.90;;;;;;5014041;28;20459;-70
2022/10/12 01:06:10;;;;;;;2.50;1.43;;;9.90;99.90;;;;;;4992889;28;21027;-70
2022/10/12 01:08:36;;;;;;;1.20;1.10;;;9.90;99.90;;;;;;5008583;28;20486;-70
2022/10/12 01:11:03;;;;;;;2.07;1.33;;;9.90;99.90;;;;;;5005764;28;20517;-69
2022/10/12 01:13:29;;;;;;;2.53;1.10;;;9.90;99.90;;;;;;4998158;28;20505;-70
2022/10/12 01:16:10;;;;;;;2.30;1.60;;;9.90;99.90;;;;;;5004023;28;20983;-71
2022/10/12 01:18:38;;;;;;;3.03;1.50;;;9.80;99.90;;;;;;5018473;28;20455;-70
2022/10/12 01:21:17;;;;;;;2.17;1.27;;;9.80;99.90;;;;;;5028776;28;20537;-70
2022/10/12 01:24:17;;;;;;;2.40;1.10;;;9.80;99.90;;;;;;5032176;28;20458;-71
2022/10/12 01:26:57;;;;;;;1.70;1.07;;;9.80;99.90;;;;;;4998602;28;20529;-70
2022/10/12 01:29:56;;;;;;;1.60;1.13;;;9.80;99.90;;;;;;5012615;28;20458;-70
2022/10/12 01:32:50;;;;;;;3.10;1.40;;;9.70;99.90;;;;;;5025127;28;20462;-70
2022/10/12 01:35:25;;;;;;;3.67;1.50;;;9.70;99.90;;;;;;5008676;28;20451;-70
2022/10/12 01:38:01;;;;;;;4.00;1.30;;;9.70;99.90;;;;;;4995610;28;20493;-70
2022/10/12 01:40:36;;;;;;;3.93;1.33;;;9.70;99.90;;;;;;5030357;28;20465;-69
2022/10/12 01:43:03;;;;;;;2.10;1.10;;;9.70;99.90;;;;;;5018021;28;20465;-69
2022/10/12 01:45:28;;;;;;;1.60;1.13;;;9.70;99.90;;;;;;5010505;28;20464;-70
2022/10/12 01:47:54;;;;;;;3.07;1.60;;;9.60;99.90;;;;;;5022177;28;20455;-69
2022/10/12 01:50:24;;;;;;;2.00;1.00;;;9.60;99.90;;;;;;5002376;28;20211;-69
2022/10/12 01:53:17;;;;;;;2.00;1.30;;;9.60;99.90;;;;;;5008455;28;20629;-69
2022/10/12 01:55:54;;;;;;;3.53;1.33;;;9.60;99.90;;;;;;5006132;28;20524;-70
2022/10/12 01:58:38;;;;;;;2.07;1.40;;;9.50;99.90;;;;;;5016124;28;20869;-69
2022/10/12 02:01:18;;;;;;;3.97;1.53;;;9.50;99.90;;;;;;5018093;28;20478;-69
2022/10/12 02:03:51;;;;;;;2.43;1.53;;;9.50;99.90;;;;;;5004466;28;20529;-70
2022/10/12 02:06:25;;;;;;;1.20;1.20;;;9.50;99.90;;;;;;5013208;28;20466;-69
2022/10/12 02:09:00;;;;;;;7.57;1.33;;;9.50;99.90;;;;;;5013760;28;20553;-68
2022/10/12 02:11:26;;;;;;;1.37;1.17;;;9.50;99.90;;;;;;5029094;28;20457;-69
2022/10/12 02:14:02;;;;;;;2.03;1.17;;;9.40;99.90;;;;;;5000122;28;20451;-69
2022/10/12 02:16:33;;;;;;;5.80;1.63;;;9.40;99.90;;;;;;5017759;28;20465;-70
2022/10/12 02:18:59;;;;;;;6.43;1.57;;;9.40;99.90;;;;;;5000807;28;20452;-70
2022/10/12 02:21:30;;;;;;;2.97;1.77;;;9.40;99.90;;;;;;5020503;28;20451;-69
2022/10/12 02:24:01;;;;;;;2.60;1.50;;;9.40;99.90;;;;;;5014390;28;20446;-70
2022/10/12 02:26:30;;;;;;;2.40;1.37;;;9.40;99.90;;;;;;5007677;28;20489;-69
2022/10/12 02:28:59;;;;;;;3.70;1.43;;;9.30;99.90;;;;;;5021082;28;20514;-69
2022/10/12 02:31:36;;;;;;;4.73;1.23;;;9.30;99.90;;;;;;5010212;28;20450;-70
2022/10/12 02:34:17;;;;;;;3.00;2.00;;;9.30;99.90;;;;;;5023480;28;20471;-68
2022/10/12 02:37:10;;;;;;;3.70;1.50;;;9.30;99.90;;;;;;5007957;28;20965;-69
2022/10/12 02:39:49;;;;;;;1.70;1.60;;;9.30;99.90;;;;;;5020293;28;20467;-71
2022/10/12 02:42:24;;;;;;;2.53;1.17;;;9.30;99.90;;;;;;5025190;28;20437;-68
2022/10/12 02:44:52;;;;;;;3.90;1.30;;;9.20;99.90;;;;;;5018783;28;20459;-70
2022/10/12 02:47:21;;;;;;;2.10;1.30;;;9.00;99.90;;;;;;5019244;28;20457;-69
2022/10/12 02:49:47;;;;;;;3.60;2.00;;;9.00;99.90;;;;;;5015309;28;20447;-69
2022/10/12 02:52:13;;;;;;;1.87;1.57;;;9.10;99.90;;;;;;5014878;28;20436;-70
2022/10/12 02:54:39;;;;;;;2.73;1.30;;;9.10;99.90;;;;;;5026470;28;20480;-70
2022/10/12 02:57:04;;;;;;;5.00;1.87;;;9.10;99.90;;;;;;5010146;28;20217;-69
2022/10/12 02:59:30;;;;;;;4.33;1.70;;;9.10;99.90;;;;;;5027348;28;20813;-69
2022/10/12 03:01:56;;;;;;;3.53;1.67;;;9.00;99.90;;;;;;5000728;28;20224;-70
2022/10/12 03:04:21;;;;;;;1.80;1.30;;;9.00;99.90;;;;;;5000597;28;20232;-70
2022/10/12 03:06:47;;;;;;;1.37;1.20;;;8.80;99.90;;;;;;5011327;28;20235;-69
2022/10/12 03:09:13;;;;;;;5.10;1.50;;;8.80;99.90;;;;;;5020362;28;20265;-69
2022/10/12 03:11:42;;;;;;;3.17;1.83;;;8.80;99.90;;;;;;5030924;28;20219;-70
2022/10/12 03:14:13;;;;;;;1.23;1.00;;;8.90;99.90;;;;;;5016806;28;20208;-70
2022/10/12 03:16:39;;;;;;;1.33;1.20;;;8.90;99.90;;;;;;5016044;28;20498;-69
2022/10/12 03:19:05;;;;;;;1.10;1.00;;;8.90;99.90;;;;;;5016705;28;20441;-69
2022/10/12 03:21:31;;;;;;;5.40;1.20;;;8.90;99.90;;;;;;5012530;28;20798;-69
2022/10/12 03:23:57;;;;;;;1.87;1.50;;;8.90;99.90;;;;;;5013297;28;20462;-69
2022/10/12 03:26:23;;;;;;;1.60;1.10;;;8.90;99.90;;;;;;5024664;28;20535;-69
2022/10/12 03:28:48;;;;;;;3.10;1.20;;;8.90;99.90;;;;;;5002827;28;20221;-70
2022/10/12 03:31:16;;;;;;;2.70;1.77;;;8.90;99.90;;;;;;4996912;28;20336;-67
2022/10/12 03:33:41;;;;;;;1.93;1.63;;;8.90;99.90;;;;;;5012216;28;20473;-70
2022/10/12 03:36:08;;;;;;;1.40;1.20;;;8.90;99.90;;;;;;5012975;28;20517;-68
2022/10/12 03:38:34;;;;;;;2.00;1.50;;;8.90;99.90;;;;;;4999027;28;20213;-69
2022/10/12 03:41:00;;;;;;;2.67;1.33;;;8.90;99.90;;;;;;5009699;28;20572;-70
2022/10/12 03:43:26;;;;;;;1.83;1.30;;;8.80;99.90;;;;;;5007018;28;20260;-70
2022/10/12 03:45:53;;;;;;;1.70;1.37;;;8.80;99.90;;;;;;5012952;28;20229;-70
2022/10/12 03:48:19;;;;;;;2.37;1.50;;;8.80;99.90;;;;;;5019874;28;20459;-70
2022/10/12 03:50:49;;;;;;;6.20;1.50;;;8.70;99.90;;;;;;5016321;28;20988;-70
2022/10/12 03:53:16;;;;;;;1.23;1.13;;;8.70;99.90;;;;;;5017337;28;20434;-69
2022/10/12 03:55:42;;;;;;;4.63;1.80;;;8.70;99.90;;;;;;5016213;28;20490;-69
2022/10/12 03:58:07;;;;;;;3.00;1.40;;;8.70;99.90;;;;;;5020483;28;20489;-69
2022/10/12 04:00:33;;;;;;;1.50;1.10;;;8.70;99.90;;;;;;5024085;28;20224;-69
2022/10/12 04:03:01;;;;;;;3.40;1.40;;;8.70;99.90;;;;;;5003901;28;20768;-69
2022/10/12 04:05:27;;;;;;;2.40;1.37;;;8.70;99.90;;;;;;5005947;28;20468;-70
2022/10/12 04:07:53;;;;;;;6.10;2.50;;;8.70;99.90;;;;;;5011250;28;20451;-69
2022/10/12 04:10:19;;;;;;;3.00;2.20;;;8.70;99.90;;;;;;5011181;28;20462;-69
2022/10/12 04:12:45;;;;;;;3.73;1.90;;;8.60;99.90;;;;;;5019992;28;20291;-69
2022/10/12 04:15:12;;;;;;;5.70;1.60;;;8.60;99.90;;;;;;5024980;28;20220;-69
2022/10/12 04:17:38;;;;;;;2.30;1.77;;;8.60;99.90;;;;;;5014838;28;20459;-69
2022/10/12 04:20:05;;;;;;;2.57;2.30;;;8.60;99.90;;;;;;5016050;28;20470;-69
2022/10/12 04:22:31;;;;;;;4.03;2.80;;;8.50;99.90;;;;;;5011316;28;20467;-70
2022/10/12 04:24:56;;;;;;;3.20;2.33;;;8.50;99.90;;;;;;5012240;28;20471;-70
2022/10/12 04:27:22;;;;;;;4.07;3.03;;;8.50;99.90;;;;;;4996691;28;20213;-69
2022/10/12 04:29:48;;;;;;;4.73;4.30;;;8.50;99.90;;;;;;5020529;28;20251;-70
2022/10/12 04:32:13;;;;;;;3.80;3.20;;;8.50;99.90;;;;;;5017722;28;20242;-70
2022/10/12 04:34:39;;;;;;;6.50;2.87;;;8.50;99.90;;;;;;5010012;28;20275;-70
2022/10/12 04:37:05;;;;;;;5.00;2.00;;;8.40;99.90;;;;;;5001823;28;20784;-69
2022/10/12 04:39:31;;;;;;;3.90;2.10;;;8.40;99.90;;;;;;5012743;28;20228;-70
2022/10/12 04:41:57;;;;;;;3.40;1.80;;;8.40;99.90;;;;;;5031506;28;20466;-69
2022/10/12 04:44:22;;;;;;;2.63;1.70;;;8.40;99.90;;;;;;5038792;28;20784;-70
2022/10/12 04:46:48;;;;;;;1.77;1.40;;;8.40;99.90;;;;;;5000885;28;20304;-70
2022/10/12 04:49:15;;;;;;;3.27;1.57;;;8.40;99.90;;;;;;5018615;28;20547;-70
2022/10/12 04:51:40;;;;;;;6.43;1.50;;;8.40;99.90;;;;;;5002454;28;20294;-70
2022/10/12 04:54:06;;;;;;;2.50;1.57;;;8.30;99.90;;;;;;5010472;28;20522;-70
2022/10/12 04:56:32;;;;;;;3.43;1.60;;;8.30;99.90;;;;;;5016922;28;20299;-69
2022/10/12 04:58:57;;;;;;;4.03;1.90;;;8.30;99.90;;;;;;4996583;28;20708;-70
2022/10/12 05:01:23;;;;;;;2.50;2.03;;;8.30;99.90;;;;;;5012996;28;20225;-70
2022/10/12 05:03:49;;;;;;;5.10;1.50;;;8.30;99.90;;;;;;5006111;28;20691;-70
2022/10/12 05:06:14;;;;;;;3.37;1.80;;;8.30;99.90;;;;;;5013662;28;20252;-70
2022/10/12 05:08:40;;;;;;;4.10;1.80;;;8.30;99.90;;;;;;5015298;28;20216;-70
2022/10/12 05:11:06;;;;;;;4.80;2.00;;;8.30;99.90;;;;;;4998846;28;20686;-71
2022/10/12 05:13:31;;;;;;;3.53;1.80;;;8.30;99.90;;;;;;5012825;28;20688;-69
2022/10/12 05:15:57;;;;;;;3.23;1.40;;;8.30;99.90;;;;;;5035543;28;20785;-70
2022/10/12 05:18:23;;;;;;;2.33;1.67;;;8.20;99.90;;;;;;5001048;28;20232;-68
2022/10/12 05:20:48;;;;;;;7.73;2.37;;;8.20;99.90;;;;;;4999714;28;20220;-71
2022/10/12 05:23:14;;;;;;;2.23;2.00;;;8.20;99.90;;;;;;5000678;28;20229;-70
2022/10/12 05:25:40;;;;;;;2.80;2.13;;;8.20;99.90;;;;;;5015962;28;20251;-70
2022/10/12 05:28:06;;;;;;;8.97;2.83;;;8.20;99.90;;;;;;5015995;28;20215;-70
2022/10/12 05:30:32;;;;;;;2.40;1.93;;;8.20;99.90;;;;;;4980939;28;20697;-69
2022/10/12 05:32:58;;;;;;;3.30;2.20;;;8.20;99.90;;;;;;5028294;28;20224;-69
2022/10/12 05:35:23;;;;;;;2.37;2.17;;;8.20;99.90;;;;;;5009703;28;20462;-70
2022/10/12 05:37:49;;;;;;;2.93;1.90;;;8.10;99.90;;;;;;5013489;28;20216;-70
2022/10/12 05:40:15;;;;;;;2.13;1.80;;;8.10;99.90;;;;;;5012414;28;20249;-69
2022/10/12 05:42:40;;;;;;;5.07;1.70;;;8.10;99.90;;;;;;5019597;28;20243;-70
2022/10/12 05:45:07;;;;;;;3.73;2.07;;;8.10;99.90;;;;;;5007329;28;20221;-69
2022/10/12 05:47:32;;;;;;;1.97;1.50;;;8.10;99.90;;;;;;5018349;28;20212;-69
2022/10/12 05:49:58;;;;;;;2.53;1.63;;;8.10;99.90;;;;;;5013555;28;20521;-70
2022/10/12 05:52:24;;;;;;;4.90;1.87;;;8.10;99.90;;;;;;5016079;28;20220;-69
2022/10/12 05:54:49;;;;;;;2.50;1.80;;;8.00;99.90;;;;;;5001548;28;20235;-71
2022/10/12 05:57:15;;;;;;;7.57;2.93;;;8.00;99.90;;;;;;4996415;28;20720;-70
2022/10/12 05:59:41;;;;;;;6.10;3.20;;;8.00;99.90;;;;;;5019850;28;20585;-70
2022/10/12 06:02:11;;;;;;;5.63;2.73;;;8.00;99.90;;;;;;5027272;28;20230;-70
2022/10/12 06:04:37;;;;;;;5.30;2.23;;;8.00;99.90;;;;;;5002385;28;20455;-69
2022/10/12 06:07:03;;;;;;;5.17;2.73;;;8.00;99.90;;;;;;4999603;28;21051;-71
2022/10/12 06:09:28;;;;;;;5.47;3.27;;;8.00;99.90;;;;;;5036234;28;20684;-71
2022/10/12 06:11:54;;;;;;;4.77;3.10;;;7.90;99.90;;;;;;5024502;28;20244;-70
2022/10/12 06:14:20;;;;;;;2.70;2.47;;;7.90;99.90;;;;;;5018658;28;20331;-70
2022/10/12 06:16:48;;;;;;;6.27;2.43;;;7.90;99.90;;;;;;5022766;28;20220;-71
2022/10/12 06:19:13;;;;;;;6.27;2.20;;;7.90;99.90;;;;;;5007848;28;20223;-70
2022/10/12 06:21:39;;;;;;;3.30;2.20;;;7.90;99.90;;;;;;5003841;28;20468;-70
2022/10/12 06:24:05;;;;;;;8.40;2.50;;;7.90;99.90;;;;;;5021193;28;20216;-70
2022/10/12 06:26:31;;;;;;;4.10;2.80;;;7.90;99.90;;;;;;5020490;28;20208;-70
2022/10/12 06:28:56;;;;;;;3.17;2.87;;;7.90;99.90;;;;;;5027404;28;20226;-70
2022/10/12 06:31:22;;;;;;;6.90;3.43;;;7.90;99.90;;;;;;5025954;28;20295;-67
2022/10/12 06:33:49;;;;;;;10.00;3.40;;;7.90;99.90;;;;;;5002212;28;20218;-69
2022/10/12 06:36:15;;;;;;;10.13;3.40;;;7.90;99.90;;;;;;5006393;28;20252;-70
2022/10/12 06:38:41;;;;;;;9.50;4.87;;;7.90;99.90;;;;;;5003232;28;20969;-71
2022/10/12 06:41:07;;;;;;;6.97;5.00;;;7.90;99.90;;;;;;5020453;28;20471;-71
2022/10/12 06:43:32;;;;;;;5.90;4.53;;;7.90;99.90;;;;;;5026650;28;20232;-69
2022/10/12 06:46:00;;;;;;;7.93;4.23;;;7.90;99.90;;;;;;5025283;28;20597;-69
2022/10/12 06:48:26;;;;;;;4.90;4.23;;;7.90;99.90;;;;;;5031992;28;20227;-69
2022/10/12 06:50:52;;;;;;;7.30;4.60;;;7.90;99.90;;;;;;5013482;28;20463;-69
2022/10/12 06:53:18;;;;;;;5.83;4.90;;;7.90;99.90;;;;;;5019367;28;20232;-71
2022/10/12 06:55:44;;;;;;;10.20;5.13;;;7.90;99.90;;;;;;5022255;28;20216;-70
2022/10/12 06:58:10;;;;;;;11.97;6.37;;;7.90;99.90;;;;;;5021181;28;20462;-71
2022/10/12 07:00:36;;;;;;;22.73;9.00;;;8.00;99.90;;;;;;5004605;28;20458;-70
2022/10/12 07:03:02;;;;;;;12.10;7.43;;;8.00;99.90;;;;;;5022813;28;20246;-70
2022/10/12 07:05:28;;;;;;;13.27;6.97;;;8.00;99.90;;;;;;5025572;28;20978;-69
2022/10/12 07:07:54;;;;;;;10.03;7.00;;;8.00;99.90;;;;;;5006182;28;20469;-70
2022/10/12 07:10:19;;;;;;;10.77;7.07;;;8.00;99.90;;;;;;4999230;28;20460;-70
2022/10/12 07:12:45;;;;;;;15.23;6.63;;;8.10;99.90;;;;;;5021874;28;20212;-71
2022/10/12 07:15:11;;;;;;;15.30;5.43;;;8.10;99.90;;;;;;5017458;28;20265;-70
2022/10/12 07:17:37;;;;;;;9.63;5.10;;;8.20;99.90;;;;;;5027744;28;20224;-71
2022/10/12 07:20:03;;;;;;;5.60;4.27;;;8.20;99.90;;;;;;5019375;28;20224;-70
2022/10/12 07:22:29;;;;;;;6.70;3.70;;;8.20;99.90;;;;;;5001954;28;20635;-71
2022/10/12 07:24:55;;;;;;;5.50;3.53;;;8.30;99.90;;;;;;5019380;28;20460;-70
2022/10/12 07:27:20;;;;;;;5.97;3.47;;;8.30;99.90;;;;;;5022415;28;20726;-70
2022/10/12 07:29:46;;;;;;;4.57;3.57;;;8.40;99.90;;;;;;5004928;28;20258;-69
2022/10/12 07:32:12;;;;;;;7.00;2.60;;;8.40;99.90;;;;;;5013047;28;20224;-69
2022/10/12 07:34:37;;;;;;;7.10;2.83;;;8.40;99.90;;;;;;5015406;28;20702;-70
2022/10/12 07:37:03;;;;;;;4.10;2.70;;;8.50;99.90;;;;;;5001843;28;20228;-70
2022/10/12 07:39:29;;;;;;;7.83;2.37;;;8.50;99.90;;;;;;5007803;28;20230;-70
2022/10/12 07:41:55;;;;;;;2.70;2.20;;;8.60;99.90;;;;;;5000057;28;20273;-70
2022/10/12 07:44:21;;;;;;;3.70;2.10;;;8.60;99.90;;;;;;5019382;28;20300;-71
2022/10/12 07:46:47;;;;;;;5.80;3.87;;;8.60;99.90;;;;;;5017775;28;20480;-71
2022/10/12 07:49:14;;;;;;;6.93;3.33;;;8.70;99.90;;;;;;5020879;28;20232;-68
2022/10/12 07:51:40;;;;;;;6.50;3.13;;;8.70;99.90;;;;;;5018358;28;20219;-69
2022/10/12 07:54:07;;;;;;;4.03;2.27;;;8.80;99.90;;;;;;4999951;28;20454;-70
2022/10/12 07:56:33;;;;;;;3.97;2.37;;;8.90;99.90;;;;;;5006046;28;20490;-70
2022/10/12 07:58:59;;;;;;;8.40;2.40;;;9.00;99.90;;;;;;5000432;28;20513;-70
2022/10/12 08:01:28;;;;;;;10.10;2.57;;;9.00;99.90;;;;;;5010286;28;20451;-71
2022/10/12 08:03:55;;;;;;;6.33;2.60;;;9.10;99.90;;;;;;5006476;28;20446;-70
2022/10/12 08:06:24;;;;;;;3.50;2.30;;;9.20;99.90;;;;;;5016341;28;20465;-71
2022/10/12 08:08:50;;;;;;;3.30;2.20;;;9.30;99.90;;;;;;5016419;28;20978;-71
2022/10/12 08:11:18;;;;;;;3.23;2.40;;;9.40;99.90;;;;;;5033106;28;20468;-70
2022/10/12 08:13:44;;;;;;;2.10;1.70;;;9.50;99.90;;;;;;5034641;28;20545;-70
2022/10/12 08:16:15;;;;;;;2.50;1.87;;;9.60;99.90;;;;;;5029579;28;20467;-70
2022/10/12 08:18:42;;;;;;;4.33;2.27;;;9.70;99.90;;;;;;5012309;28;20455;-70
2022/10/12 08:21:09;;;;;;;5.57;1.73;;;9.80;99.90;;;;;;5003041;28;20472;-70
2022/10/12 08:23:36;;;;;;;2.73;2.17;;;9.80;99.90;;;;;;5020103;28;20487;-70
2022/10/12 08:26:02;;;;;;;2.43;2.20;;;9.90;99.90;;;;;;5005427;28;20546;-71
2022/10/12 08:28:28;;;;;;;2.27;2.07;;;10.00;99.90;;;;;;5003777;28;20475;-70
2022/10/12 08:30:54;;;;;;;5.77;2.10;;;10.00;99.90;;;;;;5024356;28;20486;-71
2022/10/12 08:33:19;;;;;;;3.03;2.30;;;10.10;99.90;;;;;;5007958;28;20235;-69
2022/10/12 08:35:49;;;;;;;3.63;2.30;;;10.20;99.90;;;;;;5014221;28;20220;-71
2022/10/12 08:38:15;;;;;;;4.23;1.90;;;10.30;99.90;;;;;;5000078;28;20230;-69
2022/10/12 08:40:56;;;;;;;5.97;2.57;;;10.40;99.90;;;;;;5019405;28;20540;-70
2022/10/12 08:43:28;;;;;;;6.47;2.53;;;10.60;99.90;;;;;;5021223;28;20454;-70
2022/10/12 08:45:57;;;;;;;2.70;2.10;;;10.60;99.90;;;;;;5005105;28;20829;-69
2022/10/12 08:48:46;;;;;;;4.27;2.70;;;10.70;99.90;;;;;;5013934;28;20488;-71
2022/10/12 08:51:25;;;;;;;3.67;2.60;;;10.80;99.90;;;;;;5013609;28;20457;-71
2022/10/12 08:54:05;;;;;;;3.17;2.40;;;11.00;99.90;;;;;;5015468;28;20476;-70
2022/10/12 08:56:33;;;;;;;6.30;3.90;;;11.00;99.90;;;;;;5032603;28;20471;-70
2022/10/12 08:59:01;;;;;;;7.20;2.60;;;11.10;99.90;;;;;;5021086;28;20458;-70
2022/10/12 09:01:38;;;;;;;4.23;2.80;;;11.20;99.90;;;;;;5020504;28;20462;-71
2022/10/12 09:04:21;;;;;;;6.77;3.17;;;11.20;99.90;;;;;;5022046;28;20526;-70
2022/10/12 09:06:56;;;;;;;3.73;2.80;;;11.40;99.90;;;;;;5012517;28;20463;-70
2022/10/12 09:09:46;;;;;;;2.90;2.30;;;11.50;99.90;;;;;;5020647;28;20459;-71
2022/10/12 09:12:48;;;;;;;3.17;2.50;;;11.60;99.90;;;;;;5007317;28;20802;-69
2022/10/12 09:15:18;;;;;;;6.57;2.90;;;11.70;99.90;;;;;;5033245;28;20455;-70
2022/10/12 09:17:53;;;;;;;8.10;3.33;;;11.80;99.90;;;;;;5005134;28;20467;-71
2022/10/12 09:20:27;;;;;;;6.10;3.50;;;11.90;99.90;;;;;;5008661;28;20467;-70
2022/10/12 09:22:57;;;;;;;10.17;3.77;;;12.00;99.90;;;;;;5035241;28;20468;-70
2022/10/12 09:25:26;;;;;;;9.20;3.70;;;12.00;99.90;;;;;;4996628;28;20822;-71
2022/10/12 09:27:53;;;;;;;5.20;4.13;;;12.20;99.90;;;;;;5023891;28;20486;-70
2022/10/12 09:30:20;;;;;;;5.97;3.33;;;12.30;99.90;;;;;;5021441;28;20461;-70
2022/10/12 09:33:01;;;;;;;6.63;3.50;;;12.40;99.90;;;;;;5003324;28;20455;-71
2022/10/12 09:35:27;;;;;;;9.63;3.63;;;12.60;99.90;;;;;;5016243;28;20487;-70
2022/10/12 09:37:53;;;;;;;5.13;3.00;;;12.60;99.90;;;;;;5015671;28;20475;-70
2022/10/12 09:40:24;;;;;;;9.93;2.90;;;12.80;99.90;;;;;;5014593;28;21014;-70
2022/10/12 09:42:51;;;;;;;3.33;3.00;;;13.00;99.90;;;;;;5023450;28;21029;-71
2022/10/12 09:45:19;;;;;;;6.43;3.33;;;13.10;99.90;;;;;;5014062;28;20458;-70
2022/10/12 09:48:12;;;;;;;6.93;3.37;;;13.20;99.90;;;;;;5019003;28;20458;-71
2022/10/12 09:50:50;;;;;;;6.00;3.13;;;13.30;99.90;;;;;;5020127;28;20550;-70
2022/10/12 09:53:21;;;;;;;4.00;3.50;;;13.40;99.90;;;;;;5021401;28;20450;-70
2022/10/12 09:56:33;;;;;;;4.27;3.27;;;13.50;99.90;;;;;;5006298;28;20451;-71
2022/10/12 09:59:06;;;;;;;3.97;3.20;;;13.50;99.90;;;;;;4981795;28;20467;-69
2022/10/12 10:01:34;;;;;;;5.60;3.43;;;13.60;99.90;;;;;;5021498;28;20463;-71
2022/10/12 10:04:09;;;;;;;4.83;2.97;;;13.70;99.90;;;;;;5030968;28;20461;-72
2022/10/12 10:06:36;;;;;;;6.80;3.60;;;13.80;99.90;;;;;;5002618;28;20462;-70
2022/10/12 10:09:02;;;;;;;4.97;2.83;;;13.80;99.90;;;;;;5000200;28;20494;-69
2022/10/12 10:11:31;;;;;;;5.70;3.33;;;13.90;99.90;;;;;;5017465;28;20870;-70
2022/10/12 10:13:59;;;;;;;6.43;3.77;;;14.10;99.90;;;;;;5039366;28;20562;-69
2022/10/12 10:16:27;;;;;;;4.60;3.40;;;14.00;99.90;;;;;;5018754;28;20486;-70
2022/10/12 10:18:53;;;;;;;3.13;2.80;;;14.10;99.90;;;;;;5004103;28;20460;-69
2022/10/12 10:21:32;;;;;;;10.37;3.60;;;14.10;99.90;;;;;;5029214;28;20916;-69
2022/10/12 10:24:04;;;;;;;5.83;3.50;;;14.20;99.90;;;;;;5001543;28;20316;-70
2022/10/12 10:26:50;;;;;;;6.67;3.80;;;14.30;99.90;;;;;;5025569;28;20458;-69
2022/10/12 10:29:29;;;;;;;5.63;3.33;;;14.30;99.90;;;;;;5020337;28;20678;-70
2022/10/12 10:32:23;;;;;;;7.57;3.90;;;14.40;99.90;;;;;;5000136;28;20455;-70
2022/10/12 10:34:59;;;;;;;7.27;3.50;;;14.50;99.90;;;;;;4990729;28;20459;-70
2022/10/12 10:37:26;;;;;;;4.87;3.20;;;14.60;99.90;;;;;;5020092;28;20446;-70
2022/10/12 10:39:54;;;;;;;6.33;3.50;;;14.70;99.90;;;;;;4997745;28;20485;-71
2022/10/12 10:42:27;;;;;;;4.90;4.00;;;14.90;99.90;;;;;;5015796;28;20450;-70
2022/10/12 10:44:58;;;;;;;5.70;3.03;;;15.00;99.90;;;;;;5016149;28;20462;-68
2022/10/12 10:47:24;;;;;;;5.90;3.60;;;15.10;99.90;;;;;;5019117;28;20465;-70
2022/10/12 10:49:58;;;;;;;3.57;2.93;;;15.10;99.90;;;;;;5025344;28;20971;-70
2022/10/12 10:52:25;;;;;;;5.97;3.57;;;15.10;99.90;;;;;;5022751;28;20219;-71
2022/10/12 10:55:10;;;;;;;9.67;3.77;;;15.10;99.90;;;;;;5007796;28;20477;-69
2022/10/12 10:57:54;;;;;;;3.60;3.13;;;15.10;99.90;;;;;;5018243;28;20839;-70
2022/10/12 11:00:21;;;;;;;8.40;3.97;;;15.10;99.90;;;;;;5016466;28;20474;-69
2022/10/12 11:03:00;;;;;;;5.57;3.30;;;15.30;99.90;;;;;;5020642;28;20971;-69
2022/10/12 11:05:33;;;;;;;5.77;3.73;;;15.40;99.90;;;;;;5013487;28;20468;-69
2022/10/12 11:08:04;;;;;;;6.23;4.30;;;15.40;99.90;;;;;;5021396;28;20505;-69
2022/10/12 11:10:40;;;;;;;9.00;4.17;;;15.50;99.90;;;;;;5012795;28;21035;-70
2022/10/12 11:13:31;;;;;;;3.23;3.00;;;15.50;99.90;;;;;;5013948;28;20844;-70
2022/10/12 11:16:03;;;;;;;3.40;2.93;;;15.60;99.90;;;;;;5013926;28;20546;-69
2022/10/12 11:18:45;;;;;;;5.33;3.57;;;15.60;99.90;;;;;;5019677;28;20505;-70
2022/10/12 11:21:16;;;;;;;8.27;4.90;;;15.70;99.90;;;;;;5021412;28;20474;-70
2022/10/12 11:23:53;;;;;;;6.30;4.40;;;15.90;99.90;;;;;;5023738;28;20820;-69
2022/10/12 11:26:30;;;;;;;4.30;3.67;;;16.00;99.90;;;;;;4987456;28;20458;-69
2022/10/12 11:28:58;;;;;;;10.13;4.60;;;16.00;99.90;;;;;;5016969;28;20454;-70
2022/10/12 11:31:50;;;;;;;8.50;3.73;;;16.00;99.90;;;;;;5015709;28;20456;-70
2022/10/12 11:34:20;;;;;;;5.90;3.73;;;16.00;99.90;;;;;;5008532;28;20436;-69
2022/10/12 11:36:50;;;;;;;3.90;3.30;;;16.00;99.90;;;;;;5014871;28;20849;-70
2022/10/12 11:39:37;;;;;;;7.07;3.90;;;16.00;99.90;;;;;;5013521;28;20442;-68
2022/10/12 11:42:06;;;;;;;6.30;3.53;;;16.10;99.90;;;;;;5017032;28;20450;-69
2022/10/12 11:44:37;;;;;;;4.40;3.10;;;16.30;99.90;;;;;;5017403;28;20439;-69
2022/10/12 11:47:26;;;;;;;7.30;4.07;;;16.50;99.90;;;;;;5004120;28;20454;-69
2022/10/12 11:49:59;;;;;;;6.70;4.40;;;16.60;99.90;;;;;;5022841;28;20454;-70
2022/10/12 11:52:35;;;;;;;7.63;3.80;;;16.70;99.90;;;;;;5020025;28;20443;-71
2022/10/12 11:55:24;;;;;;;9.00;3.70;;;16.80;99.90;;;;;;5021650;28;20758;-70
2022/10/12 11:57:53;;;;;;;4.73;3.90;;;17.00;99.90;;;;;;5018970;28;20450;-70
2022/10/12 12:00:43;;;;;;;5.93;3.93;;;16.90;99.90;;;;;;5013409;28;20467;-69
2022/10/12 12:03:20;;;;;;;6.97;3.80;;;16.80;99.90;;;;;;5022144;28;20454;-69
2022/10/12 12:05:46;;;;;;;6.33;3.80;;;16.90;99.90;;;;;;5015738;28;20476;-70
2022/10/12 12:08:39;;;;;;;9.60;3.67;;;16.90;99.90;;;;;;5021366;28;21492;-69
2022/10/12 12:11:20;;;;;;;7.93;3.80;;;17.00;99.90;;;;;;5012866;28;20221;-68
2022/10/12 12:13:46;;;;;;;6.80;4.07;;;17.00;99.90;;;;;;5001651;28;20462;-71
2022/10/12 12:16:11;;;;;;;5.30;4.27;;;17.00;99.90;;;;;;5028336;28;20462;-69
2022/10/12 12:19:11;;;;;;;5.07;3.50;;;17.00;99.90;;;;;;5028358;28;20215;-69
2022/10/12 12:22:09;;;;;;;7.20;3.87;;;17.10;99.90;;;;;;5021697;28;20228;-69
2022/10/12 12:24:35;;;;;;;3.97;2.83;;;17.20;99.90;;;;;;5017056;28;20958;-69
2022/10/12 12:27:01;;;;;;;4.33;3.90;;;17.30;99.90;;;;;;4999718;28;20458;-70
2022/10/12 12:29:27;;;;;;;6.40;3.50;;;17.40;99.90;;;;;;5003117;28;20458;-70
2022/10/12 12:31:58;;;;;;;6.13;3.93;;;17.50;99.90;;;;;;5014349;28;20216;-70
2022/10/12 12:34:26;;;;;;;5.83;3.27;;;17.50;99.90;;;;;;4996118;28;20580;-70
2022/10/12 12:36:52;;;;;;;4.70;3.30;;;17.50;99.90;;;;;;5002406;28;20978;-70
2022/10/12 12:39:26;;;;;;;9.33;3.70;;;17.60;99.90;;;;;;4996048;28;20451;-69
2022/10/12 12:41:56;;;;;;;7.50;3.17;;;17.60;99.90;;;;;;5001040;28;20465;-70
2022/10/12 12:44:37;;;;;;;5.57;4.30;;;17.60;99.90;;;;;;5013727;28;20448;-70
2022/10/12 12:47:02;;;;;;;7.13;4.83;;;17.60;99.90;;;;;;5029560;28;20474;-69
2022/10/12 12:49:56;;;;;;;3.77;3.37;;;17.60;99.90;;;;;;5013608;28;20478;-69
2022/10/12 12:52:31;;;;;;;8.07;4.50;;;17.60;99.90;;;;;;4992759;28;20247;-70
2022/10/12 12:55:15;;;;;;;6.83;4.30;;;17.60;99.90;;;;;;5020922;28;20478;-68
2022/10/12 12:57:53;;;;;;;6.60;3.93;;;17.50;99.90;;;;;;5020231;28;20450;-70
2022/10/12 13:00:24;;;;;;;5.20;4.17;;;17.40;99.90;;;;;;5005907;28;20565;-69
2022/10/12 13:03:11;;;;;;;4.03;3.63;;;17.50;99.90;;;;;;5014524;28;20455;-69
2022/10/12 13:06:01;;;;;;;4.20;3.60;;;17.50;99.90;;;;;;5018629;28;20455;-70
2022/10/12 13:08:52;;;;;;;5.73;4.30;;;17.50;99.90;;;;;;5030078;28;21042;-71
2022/10/12 13:11:43;;;;;;;5.97;5.20;;;17.60;99.90;;;;;;5015262;28;20458;-68